Time;durP1;ratioP1;P1;durP2;ratioP2;P2;SDS_P1;SDS_P2;PMS_P1;PMS_P2;Temp;Humidity;BMP_temperature;BMP_pressure;BME280_temperature;BME280_humidity;BME280_pressure;Samples;Min_cycle;Max_cycle;Signal;HPM_P1;HPM_P2
2021/11/21 00:01:01;;;;;;;33.05;23.90;;;9.80;99.90;;;;;;5067203;28;20436;-43
2021/11/21 00:03:27;;;;;;;30.30;21.88;;;9.80;99.90;;;;;;5066951;28;20103;-43
2021/11/21 00:05:52;;;;;;;29.77;21.30;;;9.80;99.90;;;;;;5066971;28;20671;-42
2021/11/21 00:08:18;;;;;;;27.95;21.33;;;9.70;99.90;;;;;;5067322;28;20050;-43
2021/11/21 00:10:44;;;;;;;26.75;20.77;;;9.80;99.90;;;;;;5066424;28;20032;-43
2021/11/21 00:13:10;;;;;;;32.80;24.25;;;9.80;99.90;;;;;;5066647;28;20093;-43
2021/11/21 00:15:36;;;;;;;31.40;23.55;;;9.80;99.90;;;;;;5069833;28;20086;-43
2021/11/21 00:18:05;;;;;;;30.90;22.40;;;9.80;99.90;;;;;;5069668;28;20036;-43
2021/11/21 00:20:34;;;;;;;30.23;22.10;;;9.70;99.90;;;;;;5070657;28;20036;-42
2021/11/21 00:23:00;;;;;;;31.25;22.92;;;9.70;99.90;;;;;;5070697;28;20021;-42
2021/11/21 00:25:26;;;;;;;31.08;23.50;;;9.80;99.90;;;;;;5067589;28;20040;-44
2021/11/21 00:27:52;;;;;;;31.30;23.23;;;9.70;99.90;;;;;;5070530;28;20020;-43
2021/11/21 00:30:17;;;;;;;28.38;22.67;;;9.70;99.90;;;;;;5070745;28;20103;-44
2021/11/21 00:32:43;;;;;;;30.23;21.63;;;9.70;99.90;;;;;;5069521;28;20025;-43
2021/11/21 00:35:09;;;;;;;29.73;23.20;;;9.70;99.90;;;;;;5069932;28;20066;-43
2021/11/21 00:37:35;;;;;;;30.40;23.02;;;9.70;99.90;;;;;;5071020;28;20054;-44
2021/11/21 00:40:00;;;;;;;28.98;21.25;;;9.70;99.90;;;;;;5069286;28;20106;-43
2021/11/21 00:42:26;;;;;;;26.95;20.70;;;9.70;99.90;;;;;;5070285;28;20027;-43
2021/11/21 00:44:52;;;;;;;27.60;21.67;;;9.70;99.90;;;;;;5070086;28;20041;-43
2021/11/21 00:47:17;;;;;;;28.42;21.05;;;9.70;99.90;;;;;;5069655;28;20353;-44
2021/11/21 00:49:43;;;;;;;28.75;21.23;;;9.70;99.90;;;;;;5069938;28;20550;-43
2021/11/21 00:52:10;;;;;;;24.90;19.00;;;9.70;99.90;;;;;;5070459;28;20468;-43
2021/11/21 00:57:20;;;;;;;29.25;22.13;;;9.70;99.90;;;;;;5070524;28;20391;-42
2021/11/21 00:59:46;;;;;;;24.27;18.50;;;9.70;99.90;;;;;;5069127;28;20024;-43
2021/11/21 01:02:12;;;;;;;27.60;19.85;;;9.70;99.90;;;;;;5070051;28;20020;-42
2021/11/21 01:04:41;;;;;;;28.15;20.35;;;9.70;99.90;;;;;;5069542;28;20479;-43
2021/11/21 01:07:09;;;;;;;26.45;19.92;;;9.70;99.90;;;;;;5069187;28;20028;-42
2021/11/21 01:09:35;;;;;;;30.92;21.65;;;9.70;99.90;;;;;;5069729;28;20020;-43
2021/11/21 01:12:06;;;;;;;25.27;19.40;;;9.70;99.90;;;;;;5069366;28;20025;-43
2021/11/21 01:14:32;;;;;;;26.42;19.75;;;9.80;99.90;;;;;;5068588;28;20016;-43
2021/11/21 01:16:58;;;;;;;27.05;20.08;;;9.70;99.90;;;;;;5069657;28;20051;-44
2021/11/21 01:19:24;;;;;;;25.48;19.83;;;9.80;99.90;;;;;;5069647;28;20055;-43
2021/11/21 01:21:50;;;;;;;29.08;21.50;;;9.70;99.90;;;;;;5068319;28;20384;-43
2021/11/21 01:24:16;;;;;;;31.25;23.17;;;9.80;99.90;;;;;;5069725;28;20043;-42
2021/11/21 01:26:42;;;;;;;29.33;22.08;;;9.80;99.90;;;;;;5069092;28;20039;-43
2021/11/21 01:29:08;;;;;;;29.80;20.90;;;9.80;99.90;;;;;;5068674;28;20553;-43
2021/11/21 01:31:34;;;;;;;24.15;18.55;;;9.70;99.90;;;;;;5069690;28;20396;-43
2021/11/21 01:33:59;;;;;;;28.42;21.00;;;9.70;99.90;;;;;;5069067;28;20023;-42
2021/11/21 01:36:27;;;;;;;28.77;21.23;;;9.80;99.90;;;;;;5068139;28;20097;-42
2021/11/21 01:38:53;;;;;;;26.60;20.80;;;9.70;99.90;;;;;;5069381;28;20044;-43
2021/11/21 01:41:19;;;;;;;28.63;20.88;;;9.80;99.90;;;;;;5068867;28;20025;-42
2021/11/21 01:43:45;;;;;;;27.58;20.35;;;9.80;99.90;;;;;;5068523;28;20016;-43
2021/11/21 01:46:11;;;;;;;26.70;20.45;;;9.80;99.90;;;;;;5069330;28;20082;-42
2021/11/21 01:48:36;;;;;;;29.13;21.95;;;9.80;99.90;;;;;;5068700;28;20393;-42
2021/11/21 01:51:09;;;;;;;27.55;20.55;;;9.70;99.90;;;;;;5068133;28;20020;-42
2021/11/21 01:53:36;;;;;;;26.63;19.80;;;9.80;99.90;;;;;;5069224;28;20032;-42
2021/11/21 01:56:02;;;;;;;27.83;19.65;;;9.80;99.90;;;;;;5068005;28;20152;-42
2021/11/21 01:58:28;;;;;;;30.05;21.40;;;9.70;99.90;;;;;;5068544;28;20555;-42
2021/11/21 02:00:54;;;;;;;33.67;23.42;;;9.70;99.90;;;;;;5068664;28;20058;-42
2021/11/21 02:03:20;;;;;;;29.45;22.10;;;9.70;99.90;;;;;;5068204;28;20107;-42
2021/11/21 02:05:46;;;;;;;31.67;23.08;;;9.70;99.90;;;;;;5068643;28;20032;-42
2021/11/21 02:08:12;;;;;;;29.52;22.23;;;9.70;99.90;;;;;;5068721;28;20033;-42
2021/11/21 02:10:39;;;;;;;30.08;21.80;;;9.70;99.90;;;;;;5068050;28;20024;-42
2021/11/21 02:13:06;;;;;;;31.00;22.45;;;9.70;99.90;;;;;;5068482;28;20028;-43
2021/11/21 02:15:32;;;;;;;30.67;21.70;;;9.70;99.90;;;;;;5068365;28;20067;-43
2021/11/21 02:17:58;;;;;;;28.95;21.42;;;9.70;99.90;;;;;;5067410;28;20045;-42
2021/11/21 02:20:32;;;;;;;31.67;22.35;;;9.70;99.90;;;;;;5068666;28;20085;-44
2021/11/21 02:22:58;;;;;;;32.13;22.13;;;9.70;99.90;;;;;;5068381;28;20549;-42
2021/11/21 02:25:23;;;;;;;30.02;21.45;;;9.70;99.90;;;;;;5067382;28;20039;-43
2021/11/21 02:27:49;;;;;;;29.88;21.83;;;9.70;99.90;;;;;;5068340;28;20031;-43
2021/11/21 02:30:15;;;;;;;27.00;20.08;;;9.80;99.90;;;;;;5068680;28;20533;-42
2021/11/21 02:32:46;;;;;;;31.27;21.05;;;9.80;99.90;;;;;;5066993;28;20035;-43
2021/11/21 02:35:15;;;;;;;30.48;20.92;;;9.80;99.90;;;;;;5068385;28;20044;-43
2021/11/21 02:37:41;;;;;;;30.52;21.25;;;9.80;99.90;;;;;;5066958;28;20383;-42
2021/11/21 02:40:14;;;;;;;34.58;22.60;;;9.80;99.90;;;;;;5067790;28;20020;-43
2021/11/21 02:42:40;;;;;;;30.70;21.85;;;9.80;99.90;;;;;;5067947;28;20021;-43
2021/11/21 02:45:11;;;;;;;35.28;24.33;;;9.80;99.90;;;;;;5067337;28;20020;-43
2021/11/21 02:47:43;;;;;;;33.80;22.67;;;9.80;99.90;;;;;;5067837;28;20688;-42
2021/11/21 02:50:16;;;;;;;32.13;21.13;;;9.80;99.90;;;;;;5064477;28;20020;-43
2021/11/21 02:52:43;;;;;;;37.65;24.92;;;9.80;99.90;;;;;;5066985;28;20036;-42
2021/11/21 02:55:09;;;;;;;29.58;21.27;;;9.80;99.90;;;;;;5066739;28;20033;-43
2021/11/21 02:57:35;;;;;;;30.38;20.92;;;9.80;99.90;;;;;;5068170;28;20035;-41
2021/11/21 03:00:02;;;;;;;38.03;25.27;;;9.80;99.90;;;;;;5066944;28;20028;-42
2021/11/21 03:02:28;;;;;;;39.15;25.70;;;9.80;99.90;;;;;;5067821;28;20509;-43
2021/11/21 03:04:56;;;;;;;37.70;25.92;;;9.80;99.90;;;;;;5067897;28;20024;-42
2021/11/21 03:07:21;;;;;;;33.08;22.80;;;9.80;99.90;;;;;;5067726;28;20021;-43
2021/11/21 03:09:51;;;;;;;33.97;22.95;;;9.80;99.90;;;;;;5067591;28;20013;-43
2021/11/21 03:12:22;;;;;;;37.20;25.60;;;9.80;99.90;;;;;;5068279;28;20031;-42
2021/11/21 03:14:48;;;;;;;37.00;24.40;;;9.80;99.90;;;;;;5067368;28;20025;-44
2021/11/21 03:17:15;;;;;;;36.10;24.40;;;9.80;99.90;;;;;;5067664;28;20071;-41
2021/11/21 03:19:41;;;;;;;36.97;24.63;;;9.80;99.90;;;;;;5067877;28;20029;-41
2021/11/21 03:22:09;;;;;;;38.30;24.27;;;9.80;99.90;;;;;;5066995;28;20036;-43
2021/11/21 03:24:35;;;;;;;42.22;26.95;;;9.80;99.90;;;;;;5067421;28;20074;-42
2021/11/21 03:27:00;;;;;;;35.75;23.40;;;9.80;99.90;;;;;;5068017;28;20642;-42
2021/11/21 03:29:26;;;;;;;40.40;25.10;;;9.80;99.90;;;;;;5066544;28;20495;-43
2021/11/21 03:31:52;;;;;;;39.10;25.52;;;9.70;99.90;;;;;;5067563;28;20103;-42
2021/11/21 03:34:17;;;;;;;37.00;24.23;;;9.70;99.90;;;;;;5066911;28;20400;-43
2021/11/21 03:36:46;;;;;;;38.83;25.60;;;9.70;99.90;;;;;;5067825;28;20446;-43
2021/11/21 03:39:12;;;;;;;40.42;25.67;;;9.70;99.90;;;;;;5067169;28;20420;-43
2021/11/21 03:41:40;;;;;;;34.90;23.40;;;9.70;99.90;;;;;;5066459;28;20529;-43
2021/11/21 03:44:07;;;;;;;37.33;24.90;;;9.70;99.90;;;;;;5067822;28;20036;-43
2021/11/21 03:46:37;;;;;;;38.33;25.40;;;9.70;99.90;;;;;;5066757;28;20472;-44
2021/11/21 03:49:04;;;;;;;40.78;26.83;;;9.80;99.90;;;;;;5066983;28;20388;-44
2021/11/21 03:51:30;;;;;;;39.28;25.70;;;9.70;99.90;;;;;;5070978;28;20025;-44
2021/11/21 03:53:56;;;;;;;41.95;25.13;;;9.70;99.90;;;;;;5071180;28;20472;-43
2021/11/21 03:56:22;;;;;;;34.33;23.35;;;9.70;99.90;;;;;;5070178;28;20039;-43
2021/11/21 03:58:48;;;;;;;37.30;24.50;;;9.70;99.90;;;;;;5071848;28;20062;-44
2021/11/21 04:01:16;;;;;;;37.17;24.35;;;9.70;99.90;;;;;;5071170;28;20032;-44
2021/11/21 04:03:43;;;;;;;39.72;24.52;;;9.70;99.90;;;;;;5070435;28;20404;-43
2021/11/21 04:06:09;;;;;;;34.88;22.85;;;9.70;99.90;;;;;;5070341;28;20040;-43
2021/11/21 04:08:35;;;;;;;36.13;23.10;;;9.70;99.90;;;;;;5070889;28;20020;-45
2021/11/21 04:11:01;;;;;;;36.08;23.30;;;9.70;99.90;;;;;;5070336;28;20046;-43
2021/11/21 04:13:26;;;;;;;37.28;23.45;;;9.80;99.90;;;;;;5070878;28;20024;-43
2021/11/21 04:15:52;;;;;;;34.20;23.08;;;9.70;99.90;;;;;;5070048;28;20511;-42
2021/11/21 04:18:18;;;;;;;34.35;22.30;;;9.80;99.90;;;;;;5070542;28;20037;-43
2021/11/21 04:20:45;;;;;;;36.05;23.73;;;9.70;99.90;;;;;;5070558;28;20036;-43
2021/11/21 04:23:11;;;;;;;35.85;23.98;;;9.70;99.90;;;;;;5070208;28;20487;-43
2021/11/21 04:25:36;;;;;;;36.65;23.70;;;9.70;99.90;;;;;;5070167;28;20032;-42
2021/11/21 04:28:02;;;;;;;38.17;23.85;;;9.70;99.90;;;;;;5069753;28;20024;-43
2021/11/21 04:30:28;;;;;;;38.75;24.88;;;9.70;99.90;;;;;;5069940;28;20036;-43
2021/11/21 04:32:53;;;;;;;40.55;24.92;;;9.70;99.90;;;;;;5070478;28;20033;-44
2021/11/21 04:35:20;;;;;;;33.97;21.95;;;9.70;99.90;;;;;;5070581;28;20042;-44
2021/11/21 04:37:47;;;;;;;31.52;20.75;;;9.60;99.90;;;;;;5069607;28;20024;-43
2021/11/21 04:40:14;;;;;;;33.28;20.85;;;9.60;99.90;;;;;;5070497;28;20027;-44
2021/11/21 04:42:39;;;;;;;33.08;21.70;;;9.70;99.90;;;;;;5070196;28;20032;-44
2021/11/21 04:45:06;;;;;;;25.90;18.42;;;9.70;99.90;;;;;;5069793;28;20025;-43
2021/11/21 04:47:32;;;;;;;27.65;18.52;;;9.70;99.90;;;;;;5070092;28;20017;-43
2021/11/21 04:49:58;;;;;;;26.75;18.30;;;9.70;99.90;;;;;;5070185;28;20598;-43
2021/11/21 04:52:23;;;;;;;30.23;19.27;;;9.70;99.90;;;;;;5068995;28;20028;-44
2021/11/21 04:54:49;;;;;;;28.73;19.92;;;9.70;99.90;;;;;;5070000;28;20029;-42
2021/11/21 04:57:17;;;;;;;28.52;19.15;;;9.70;99.90;;;;;;5070069;28;20051;-43
2021/11/21 04:59:43;;;;;;;26.48;18.70;;;9.70;99.90;;;;;;5069448;28;20149;-43
2021/11/21 05:02:09;;;;;;;28.65;18.60;;;9.70;99.90;;;;;;5069740;28;20494;-44
2021/11/21 05:04:36;;;;;;;22.42;16.08;;;9.70;99.90;;;;;;5069917;28;20023;-44
2021/11/21 05:07:02;;;;;;;23.42;15.57;;;9.80;99.90;;;;;;5069098;28;20056;-43
2021/11/21 05:09:27;;;;;;;21.48;14.43;;;9.80;99.90;;;;;;5069504;28;20017;-42
2021/11/21 05:11:53;;;;;;;22.38;15.50;;;9.80;99.90;;;;;;5070140;28;20032;-43
2021/11/21 05:14:21;;;;;;;19.60;13.63;;;9.80;99.90;;;;;;5068994;28;20629;-42
2021/11/21 05:16:48;;;;;;;20.58;14.63;;;9.80;99.90;;;;;;5069714;28;20166;-43
2021/11/21 05:19:13;;;;;;;18.35;14.20;;;9.90;99.90;;;;;;5069622;28;20029;-43
2021/11/21 05:21:40;;;;;;;19.13;12.77;;;9.80;99.90;;;;;;5068559;28;20024;-43
2021/11/21 05:24:05;;;;;;;19.90;12.98;;;9.90;99.90;;;;;;5069000;28;20472;-43
2021/11/21 05:26:31;;;;;;;16.38;11.85;;;9.90;99.90;;;;;;5069573;28;20025;-43
2021/11/21 05:28:56;;;;;;;15.50;10.57;;;9.90;99.90;;;;;;5068323;28;20013;-44
2021/11/21 05:31:22;;;;;;;15.57;10.65;;;9.90;99.90;;;;;;5069509;28;20039;-43
2021/11/21 05:33:48;;;;;;;14.68;10.27;;;9.90;99.90;;;;;;5068811;28;20049;-43
2021/11/21 05:36:15;;;;;;;13.57;9.48;;;10.00;99.90;;;;;;5069281;28;20101;-44
2021/11/21 05:38:41;;;;;;;14.07;9.90;;;10.00;99.90;;;;;;5069445;28;20102;-44
2021/11/21 05:41:07;;;;;;;11.77;8.38;;;10.00;99.90;;;;;;5068015;28;20041;-43
2021/11/21 05:43:33;;;;;;;12.48;8.93;;;10.00;99.90;;;;;;5068601;28;20021;-43
2021/11/21 05:46:02;;;;;;;13.38;9.52;;;10.00;99.90;;;;;;5069422;28;20034;-44
2021/11/21 05:48:27;;;;;;;13.65;9.55;;;10.00;99.90;;;;;;5068561;28;20024;-44
2021/11/21 05:50:53;;;;;;;11.13;8.25;;;10.00;99.90;;;;;;5068802;28;20430;-43
2021/11/21 05:53:19;;;;;;;11.10;7.93;;;10.00;99.90;;;;;;5069136;28;20139;-43
2021/11/21 05:55:44;;;;;;;10.52;7.88;;;10.00;99.90;;;;;;5067558;28;20032;-44
2021/11/21 05:58:10;;;;;;;10.68;7.63;;;10.10;99.90;;;;;;5069179;28;20033;-45
2021/11/21 06:00:36;;;;;;;13.00;8.63;;;10.10;99.90;;;;;;5068583;28;20383;-44
2021/11/21 06:03:01;;;;;;;11.07;7.25;;;10.10;99.90;;;;;;5068238;28;20020;-44
2021/11/21 06:05:27;;;;;;;11.02;8.13;;;10.10;99.90;;;;;;5068015;28;20533;-44
2021/11/21 06:07:54;;;;;;;10.60;7.90;;;10.10;99.90;;;;;;5068444;28;20021;-43
2021/11/21 06:10:20;;;;;;;10.98;7.43;;;10.10;99.90;;;;;;5068396;28;20048;-43
2021/11/21 06:12:46;;;;;;;12.02;7.60;;;10.10;99.90;;;;;;5067821;28;20032;-43
2021/11/21 06:15:13;;;;;;;8.95;6.70;;;10.10;99.90;;;;;;5068781;28;20127;-42
2021/11/21 06:17:40;;;;;;;8.23;6.10;;;10.10;99.90;;;;;;5066928;28;20446;-43
2021/11/21 06:20:11;;;;;;;11.45;6.88;;;10.10;99.90;;;;;;5068647;28;20046;-44
2021/11/21 06:22:37;;;;;;;10.52;7.40;;;10.00;99.90;;;;;;5068527;28;20438;-44
2021/11/21 06:25:04;;;;;;;9.00;6.82;;;10.00;99.90;;;;;;5067560;28;20025;-43
2021/11/21 06:27:30;;;;;;;9.25;7.10;;;10.10;99.90;;;;;;5068049;28;20035;-44
2021/11/21 06:29:55;;;;;;;11.25;7.88;;;10.10;99.90;;;;;;5068425;28;20020;-45
2021/11/21 06:32:21;;;;;;;9.70;6.93;;;10.00;99.90;;;;;;5067628;28;20452;-43
2021/11/21 06:34:47;;;;;;;10.20;7.25;;;10.10;99.90;;;;;;5068542;28;20048;-43
2021/11/21 06:37:18;;;;;;;9.98;7.20;;;10.00;99.90;;;;;;5067620;28;20020;-43
2021/11/21 06:39:44;;;;;;;9.70;7.03;;;10.00;99.90;;;;;;5067884;28;20535;-44
2021/11/21 06:42:12;;;;;;;9.27;7.45;;;10.00;99.90;;;;;;5068029;28;20111;-43
2021/11/21 06:44:38;;;;;;;11.75;7.72;;;10.00;99.90;;;;;;5067330;28;20052;-43
2021/11/21 06:47:07;;;;;;;9.90;7.40;;;10.00;99.90;;;;;;5067634;28;20087;-43
2021/11/21 06:49:32;;;;;;;11.80;8.18;;;10.00;99.90;;;;;;5067736;28;20482;-44
2021/11/21 06:51:58;;;;;;;9.73;7.43;;;10.00;99.90;;;;;;5067295;28;20020;-43
2021/11/21 06:54:24;;;;;;;10.80;7.32;;;10.00;99.90;;;;;;5067590;28;20154;-43
2021/11/21 06:56:49;;;;;;;8.90;6.75;;;10.00;99.90;;;;;;5067783;28;20033;-43
2021/11/21 06:59:15;;;;;;;9.95;6.90;;;9.90;99.90;;;;;;5067531;28;20027;-42
2021/11/21 07:01:41;;;;;;;10.65;7.60;;;10.00;99.90;;;;;;5067785;28;20021;-43
2021/11/21 07:04:07;;;;;;;9.70;7.13;;;9.90;99.90;;;;;;5068131;28;20460;-43
2021/11/21 07:06:46;;;;;;;9.63;6.88;;;9.90;99.90;;;;;;5066506;28;20556;-43
2021/11/21 07:09:14;;;;;;;9.15;7.10;;;9.90;99.90;;;;;;5067922;28;20032;-42
2021/11/21 07:11:41;;;;;;;7.95;6.10;;;9.90;99.90;;;;;;5067724;28;20023;-43
2021/11/21 07:14:07;;;;;;;8.98;6.60;;;9.90;99.90;;;;;;5067230;28;20021;-43
2021/11/21 07:16:33;;;;;;;9.20;6.55;;;9.90;99.90;;;;;;5067643;28;20049;-43
2021/11/21 07:18:59;;;;;;;9.50;6.25;;;9.90;99.90;;;;;;5067089;28;20074;-42
2021/11/21 07:21:25;;;;;;;10.30;6.20;;;9.90;99.90;;;;;;5067545;28;20028;-43
2021/11/21 07:23:53;;;;;;;7.43;5.97;;;9.90;99.90;;;;;;5069014;28;20099;-43
2021/11/21 07:26:19;;;;;;;8.18;5.85;;;9.90;99.90;;;;;;5071584;28;20082;-43
2021/11/21 07:28:45;;;;;;;7.05;5.43;;;9.90;99.90;;;;;;5071586;28;20020;-42
2021/11/21 07:31:11;;;;;;;6.93;4.97;;;9.90;99.90;;;;;;5071186;28;20090;-43
2021/11/21 07:33:38;;;;;;;7.75;4.75;;;9.90;99.90;;;;;;5071151;28;20059;-43
2021/11/21 07:36:04;;;;;;;7.25;4.88;;;9.90;99.90;;;;;;5071923;28;20041;-43
2021/11/21 07:38:30;;;;;;;7.00;4.03;;;9.90;99.90;;;;;;5070850;28;20111;-42
2021/11/21 07:40:56;;;;;;;6.57;4.13;;;9.90;99.90;;;;;;5070604;28;20103;-42
2021/11/21 07:43:22;;;;;;;5.45;3.78;;;9.90;99.90;;;;;;5071627;28;20027;-42
2021/11/21 07:45:48;;;;;;;5.45;3.25;;;9.90;99.90;;;;;;5068485;28;20089;-43
2021/11/21 07:48:16;;;;;;;6.65;3.53;;;9.90;99.90;;;;;;5069586;28;20643;-42
2021/11/21 07:50:42;;;;;;;5.60;3.13;;;9.90;99.90;;;;;;5069846;28;20056;-43
2021/11/21 07:53:08;;;;;;;5.40;2.88;;;9.90;99.90;;;;;;5070576;28;20627;-42
2021/11/21 07:55:34;;;;;;;3.50;2.30;;;9.90;99.90;;;;;;5068899;28;20436;-42
2021/11/21 07:58:00;;;;;;;3.33;2.35;;;10.00;99.90;;;;;;5070247;28;20104;-43
2021/11/21 08:00:25;;;;;;;3.35;2.47;;;10.00;99.90;;;;;;5070097;28;20456;-43
2021/11/21 08:02:51;;;;;;;5.75;2.92;;;10.00;99.90;;;;;;5070130;28;20099;-43
2021/11/21 08:05:17;;;;;;;3.95;2.70;;;10.00;99.90;;;;;;5069843;28;20035;-43
2021/11/21 08:07:44;;;;;;;4.35;2.53;;;10.00;99.90;;;;;;5070713;28;20029;-43
2021/11/21 08:10:10;;;;;;;5.82;2.60;;;10.00;99.90;;;;;;5069030;28;20082;-43
2021/11/21 08:12:35;;;;;;;7.70;2.25;;;10.00;99.90;;;;;;5070171;28;20025;-43
2021/11/21 08:15:01;;;;;;;8.32;2.83;;;10.00;99.90;;;;;;5069857;28;20028;-43
2021/11/21 08:17:26;;;;;;;6.20;2.35;;;9.90;99.90;;;;;;5068980;28;20139;-44
2021/11/21 08:19:52;;;;;;;7.03;2.30;;;9.90;99.90;;;;;;5069161;28;20091;-43
2021/11/21 08:22:18;;;;;;;5.47;2.13;;;9.90;99.90;;;;;;5070258;28;20051;-43
2021/11/21 08:24:43;;;;;;;5.72;1.95;;;9.90;99.90;;;;;;5068611;28;20032;-44
2021/11/21 08:27:13;;;;;;;5.35;2.03;;;9.90;99.90;;;;;;5069584;28;20024;-43
2021/11/21 08:29:39;;;;;;;9.52;2.10;;;9.90;99.90;;;;;;5068840;28;20032;-43
2021/11/21 08:32:05;;;;;;;5.97;2.20;;;10.00;99.90;;;;;;5069645;28;20104;-43
2021/11/21 08:34:31;;;;;;;5.20;2.20;;;9.90;99.90;;;;;;5068429;28;20115;-43
2021/11/21 08:36:57;;;;;;;6.55;2.10;;;10.00;99.90;;;;;;5068364;28;20025;-42
2021/11/21 08:39:23;;;;;;;5.68;1.85;;;10.00;99.90;;;;;;5071832;28;20445;-44
2021/11/21 08:41:50;;;;;;;5.30;1.65;;;10.00;99.90;;;;;;5070687;28;20396;-44
2021/11/21 08:44:16;;;;;;;3.72;1.60;;;10.10;99.90;;;;;;5069135;28;20043;-43
2021/11/21 08:46:41;;;;;;;4.88;1.60;;;10.10;99.90;;;;;;5071491;28;20499;-43
2021/11/21 08:49:07;;;;;;;7.03;1.90;;;10.10;99.90;;;;;;5069783;28;20066;-44
2021/11/21 08:51:32;;;;;;;8.40;1.60;;;10.10;99.90;;;;;;5068307;28;20028;-44
2021/11/21 08:53:58;;;;;;;3.83;1.50;;;10.10;99.90;;;;;;5069548;28;20464;-43
2021/11/21 08:56:24;;;;;;;7.45;1.90;;;10.10;99.90;;;;;;5068825;28;20037;-43
2021/11/21 08:58:51;;;;;;;5.07;1.67;;;10.10;99.90;;;;;;5068623;28;20126;-43
2021/11/21 09:01:17;;;;;;;3.90;1.42;;;10.10;99.90;;;;;;5069484;28;20489;-43
2021/11/21 09:03:45;;;;;;;6.72;1.88;;;10.10;99.90;;;;;;5069044;28;20546;-44
2021/11/21 09:06:11;;;;;;;5.85;1.58;;;10.10;99.90;;;;;;5068527;28;20032;-44
2021/11/21 09:08:36;;;;;;;6.88;1.50;;;10.10;99.90;;;;;;5068841;28;20028;-43
2021/11/21 09:11:02;;;;;;;6.38;1.40;;;10.10;99.90;;;;;;5068704;28;20560;-43
2021/11/21 09:13:28;;;;;;;6.18;1.65;;;10.10;99.90;;;;;;5068517;28;20075;-43
2021/11/21 09:15:54;;;;;;;8.05;1.60;;;10.10;99.90;;;;;;5068715;28;20040;-47
2021/11/21 09:18:24;;;;;;;3.70;1.10;;;10.10;99.90;;;;;;5068871;28;20098;-43
2021/11/21 09:20:54;;;;;;;6.07;1.20;;;10.10;99.90;;;;;;5067877;28;20116;-43
2021/11/21 09:23:20;;;;;;;4.00;1.15;;;10.10;99.90;;;;;;5068835;28;20043;-41
2021/11/21 09:25:46;;;;;;;5.63;1.38;;;10.10;99.90;;;;;;5068868;28;20012;-43
2021/11/21 09:28:12;;;;;;;9.50;1.65;;;10.00;99.90;;;;;;5067768;28;20393;-44
2021/11/21 09:30:40;;;;;;;4.03;1.30;;;10.00;99.90;;;;;;5068709;28;20464;-44
2021/11/21 09:33:06;;;;;;;5.47;1.40;;;10.00;99.90;;;;;;5070032;28;20021;-42
2021/11/21 09:35:31;;;;;;;5.35;1.63;;;10.00;99.90;;;;;;5068390;28;20071;-43
2021/11/21 09:37:58;;;;;;;4.65;1.33;;;9.90;99.90;;;;;;5068468;28;20372;-43
2021/11/21 09:40:24;;;;;;;7.93;1.40;;;9.90;99.90;;;;;;5068056;28;20040;-42
2021/11/21 09:42:50;;;;;;;5.00;2.10;;;9.90;99.90;;;;;;5068220;28;20419;-42
2021/11/21 09:45:17;;;;;;;4.35;1.23;;;9.80;99.90;;;;;;5068623;28;20483;-43
2021/11/21 09:47:52;;;;;;;7.82;1.52;;;9.70;99.90;;;;;;5066582;28;20017;-44
2021/11/21 09:50:23;;;;;;;8.02;2.17;;;9.70;99.90;;;;;;5068247;28;20027;-43
2021/11/21 09:52:52;;;;;;;10.70;1.77;;;9.60;99.90;;;;;;5068059;28;20094;-43
2021/11/21 09:55:18;;;;;;;6.13;1.10;;;9.50;99.90;;;;;;5068319;28;20170;-43
2021/11/21 09:57:44;;;;;;;10.43;1.50;;;9.40;99.90;;;;;;5067560;28;20101;-44
2021/11/21 10:00:12;;;;;;;7.38;0.90;;;9.30;99.90;;;;;;5068122;28;20028;-43
2021/11/21 10:02:44;;;;;;;4.03;0.85;;;9.30;99.90;;;;;;5067211;28;20011;-43
2021/11/21 10:05:24;;;;;;;5.50;1.35;;;9.30;99.90;;;;;;5057449;28;20024;-44
2021/11/21 10:08:00;;;;;;;8.98;1.20;;;9.20;99.90;;;;;;5067627;28;20021;-44
2021/11/21 10:10:25;;;;;;;4.60;1.17;;;9.20;99.90;;;;;;5066962;28;20571;-43
2021/11/21 10:12:51;;;;;;;4.30;0.95;;;9.20;99.90;;;;;;5067461;28;20107;-43
2021/11/21 10:15:20;;;;;;;6.88;1.40;;;9.10;99.90;;;;;;5066834;28;20036;-43
2021/11/21 10:17:53;;;;;;;4.25;1.00;;;9.10;99.90;;;;;;5067246;28;20147;-43
2021/11/21 10:20:29;;;;;;;;;;;9.10;99.90;;;;;;5068383;28;20024;-42
2021/11/21 10:22:56;;;;;;;6.03;1.00;;;9.00;99.90;;;;;;5066441;28;19913;-44
2021/11/21 10:25:34;;;;;;;3.53;0.82;;;9.00;99.90;;;;;;5068003;28;20028;-44
2021/11/21 10:28:15;;;;;;;3.65;0.85;;;9.00;99.90;;;;;;5067305;28;20444;-44
2021/11/21 10:31:12;;;;;;;5.75;1.52;;;9.00;99.90;;;;;;5064673;28;20024;-43
2021/11/21 10:33:55;;;;;;;6.70;1.63;;;8.90;99.90;;;;;;5067145;28;20557;-43
2021/11/21 10:36:23;;;;;;;4.88;1.27;;;8.90;99.90;;;;;;5056469;28;20048;-43
2021/11/21 10:39:03;;;;;;;5.32;1.10;;;8.90;99.90;;;;;;5065939;28;20116;-43
2021/11/21 10:41:31;;;;;;;6.50;1.13;;;8.90;99.90;;;;;;5058278;28;20210;-44
2021/11/21 10:43:59;;;;;;;7.53;1.30;;;8.90;99.90;;;;;;5066001;28;20803;-43
2021/11/21 10:46:45;;;;;;;5.38;1.27;;;8.90;99.90;;;;;;5066805;28;20057;-43
2021/11/21 10:49:13;;;;;;;4.80;0.98;;;8.90;99.90;;;;;;5062973;28;20059;-46
2021/11/21 10:51:40;;;;;;;2.92;0.90;;;8.90;99.90;;;;;;5055446;28;20036;-43
2021/11/21 10:54:24;;;;;;;7.38;1.38;;;8.90;99.90;;;;;;5066612;28;20016;-42
2021/11/21 10:56:53;;;;;;;5.25;1.17;;;8.90;99.90;;;;;;5056382;28;20048;-43
2021/11/21 10:59:33;;;;;;;5.63;1.17;;;8.90;99.90;;;;;;5065480;28;20394;-44
2021/11/21 11:02:13;;;;;;;3.92;1.10;;;9.00;99.90;;;;;;5055721;28;20583;-44
2021/11/21 11:05:04;;;;;;;4.68;1.77;;;9.00;99.90;;;;;;5066795;28;20982;-43
2021/11/21 11:07:40;;;;;;;4.00;1.48;;;9.00;99.90;;;;;;5059198;28;20059;-43
2021/11/21 11:10:09;;;;;;;4.22;1.20;;;9.10;99.90;;;;;;5066293;28;20479;-44
2021/11/21 11:12:35;;;;;;;4.32;1.27;;;9.10;99.90;;;;;;5066391;28;20353;-43
2021/11/21 11:15:01;;;;;;;7.53;1.83;;;9.10;99.90;;;;;;5066873;28;20452;-43
2021/11/21 11:17:27;;;;;;;5.45;1.30;;;9.20;99.90;;;;;;5066763;28;20075;-44
2021/11/21 11:20:01;;;;;;;6.18;1.42;;;9.20;99.90;;;;;;5065913;28;20020;-44
2021/11/21 11:22:27;;;;;;;5.50;1.58;;;9.30;99.90;;;;;;5067056;28;20467;-44
2021/11/21 11:24:56;;;;;;;5.07;1.40;;;9.30;99.90;;;;;;5066693;28;20023;-43
2021/11/21 11:27:44;;;;;;;6.18;1.38;;;9.40;99.90;;;;;;5066223;28;20012;-44
2021/11/21 11:30:10;;;;;;;10.10;2.15;;;9.40;99.90;;;;;;5066685;28;20032;-43
2021/11/21 11:32:38;;;;;;;9.45;1.60;;;9.50;99.90;;;;;;5066467;28;20017;-42
2021/11/21 11:35:17;;;;;;;2.83;1.23;;;9.50;99.90;;;;;;5066220;28;20845;-43
2021/11/21 11:37:46;;;;;;;9.80;1.60;;;9.60;99.90;;;;;;5067167;28;20029;-43
2021/11/21 11:40:33;;;;;;;11.52;1.75;;;9.70;99.90;;;;;;5064569;28;20051;-43
2021/11/21 11:43:20;;;;;;;7.63;1.45;;;9.80;99.90;;;;;;5063622;28;20115;-43
2021/11/21 11:45:52;;;;;;;7.53;1.50;;;9.90;99.90;;;;;;5066025;28;20036;-43
2021/11/21 11:48:34;;;;;;;5.95;2.28;;;9.90;99.90;;;;;;5066743;28;20021;-43
2021/11/21 11:51:03;;;;;;;6.00;1.13;;;9.90;99.90;;;;;;5065079;28;20504;-43
2021/11/21 11:53:33;;;;;;;8.13;1.10;;;10.00;99.90;;;;;;5066454;28;20055;-43
2021/11/21 11:56:25;;;;;;;5.82;1.40;;;10.00;99.90;;;;;;5066134;28;20128;-43
2021/11/21 11:59:03;;;;;;;4.38;1.25;;;10.00;99.90;;;;;;5066198;28;20460;-43
2021/11/21 12:01:31;;;;;;;6.80;1.55;;;10.10;99.90;;;;;;5065853;28;20037;-42
2021/11/21 12:03:58;;;;;;;4.13;1.15;;;10.10;99.90;;;;;;5066559;28;20070;-43
2021/11/21 12:06:55;;;;;;;6.63;1.33;;;10.10;99.90;;;;;;5066317;28;20030;-43
2021/11/21 12:09:26;;;;;;;6.40;1.63;;;10.20;99.90;;;;;;5065824;28;20036;-43
2021/11/21 12:12:00;;;;;;;6.75;1.35;;;10.20;99.90;;;;;;5069086;28;20024;-43
2021/11/21 12:14:29;;;;;;;5.18;1.55;;;10.30;99.90;;;;;;5059354;28;20078;-42
2021/11/21 12:16:59;;;;;;;6.22;1.73;;;10.40;99.90;;;;;;5069270;28;20040;-43
2021/11/21 12:19:46;;;;;;;10.43;1.40;;;10.40;99.90;;;;;;5069883;28;20127;-42
2021/11/21 12:22:39;;;;;;;8.10;1.88;;;10.50;99.90;;;;;;5069004;28;20037;-42
2021/11/21 12:25:06;;;;;;;6.35;1.60;;;10.50;99.90;;;;;;5061630;28;20033;-42
2021/11/21 12:27:35;;;;;;;4.40;1.42;;;10.60;99.90;;;;;;5070036;28;20027;-43
2021/11/21 12:30:06;;;;;;;5.47;1.23;;;10.60;99.90;;;;;;5069425;28;20036;-43
2021/11/21 12:32:33;;;;;;;3.80;1.13;;;10.60;99.90;;;;;;5069728;28;20040;-42
2021/11/21 12:35:02;;;;;;;4.47;1.20;;;10.70;99.90;;;;;;5069794;28;20021;-43
2021/11/21 12:37:30;;;;;;;6.05;1.40;;;10.80;99.90;;;;;;5068958;28;20032;-43
2021/11/21 12:40:08;;;;;;;3.50;0.95;;;10.90;99.90;;;;;;5069602;28;20032;-43
2021/11/21 12:42:39;;;;;;;3.80;1.17;;;11.00;99.90;;;;;;5069574;28;20029;-42
2021/11/21 12:45:25;;;;;;;6.60;1.13;;;11.00;99.90;;;;;;5068722;28;20020;-44
2021/11/21 12:47:53;;;;;;;6.18;1.33;;;11.10;99.90;;;;;;5069276;28;20037;-43
2021/11/21 12:50:30;;;;;;;6.38;1.20;;;11.10;99.90;;;;;;5069563;28;20024;-42
2021/11/21 12:53:02;;;;;;;4.43;1.30;;;11.10;99.90;;;;;;5069181;28;20025;-42